Time;durP1;ratioP1;P1;durP2;ratioP2;P2;SDS_P1;SDS_P2;PMS_P1;PMS_P2;Temp;Humidity;BMP_temperature;BMP_pressure;BME280_temperature;BME280_humidity;BME280_pressure;Samples;Min_cycle;Max_cycle;Signal;HPM_P1;HPM_P2
2023/01/04 00:00:57;;;;;;;12.40;2.78;;;12.20;99.90;;;;;;5045631;28;20053;-53
2023/01/04 00:03:24;;;;;;;16.35;3.67;;;12.20;99.90;;;;;;5049723;28;20073;-49
2023/01/04 00:05:51;;;;;;;18.02;3.13;;;12.20;99.90;;;;;;5034955;28;20081;-54
2023/01/04 00:08:17;;;;;;;19.02;3.67;;;12.20;99.90;;;;;;5047073;28;20037;-56
2023/01/04 00:10:44;;;;;;;17.33;3.10;;;12.20;99.90;;;;;;5035971;28;20054;-53
2023/01/04 00:13:11;;;;;;;14.52;3.13;;;12.20;99.90;;;;;;5034940;28;20041;-51
2023/01/04 00:15:38;;;;;;;16.83;3.80;;;12.20;99.90;;;;;;5049711;28;20079;-48
2023/01/04 00:18:04;;;;;;;11.38;2.90;;;12.20;99.90;;;;;;5038977;28;20045;-51
2023/01/04 00:20:32;;;;;;;13.95;2.67;;;12.20;99.90;;;;;;5057840;28;20093;-48
2023/01/04 00:22:58;;;;;;;13.10;2.78;;;12.20;99.90;;;;;;5050300;28;20447;-52
2023/01/04 00:25:25;;;;;;;14.93;3.20;;;12.20;99.90;;;;;;5055072;28;20402;-51
2023/01/04 00:27:52;;;;;;;12.18;2.55;;;12.20;99.90;;;;;;5055431;28;20376;-52
2023/01/04 00:30:19;;;;;;;14.70;2.30;;;12.20;99.90;;;;;;5042521;28;20045;-48
2023/01/04 00:32:45;;;;;;;14.50;2.20;;;12.20;99.90;;;;;;5034375;28;20167;-54
2023/01/04 00:35:12;;;;;;;14.57;2.60;;;12.20;99.90;;;;;;5034609;28;20049;-49
2023/01/04 00:37:59;;;;;;;11.43;2.22;;;12.20;99.90;;;;;;5034397;28;20064;-53
2023/01/04 00:40:25;;;;;;;8.93;2.03;;;12.20;99.90;;;;;;5047588;28;20036;-45
2023/01/04 00:42:52;;;;;;;9.18;2.35;;;12.20;99.90;;;;;;5045513;28;20565;-51
2023/01/04 00:45:19;;;;;;;9.85;2.00;;;12.20;99.90;;;;;;5044339;28;20045;-51
2023/01/04 00:47:46;;;;;;;10.57;2.03;;;12.30;99.90;;;;;;5040534;28;20422;-50
2023/01/04 00:50:12;;;;;;;10.60;2.13;;;12.20;99.90;;;;;;5041497;28;20049;-50
2023/01/04 00:52:39;;;;;;;8.82;2.15;;;12.30;99.90;;;;;;5039608;28;20393;-49
2023/01/04 00:55:06;;;;;;;11.82;2.03;;;12.20;99.90;;;;;;5039798;28;20095;-50
2023/01/04 00:57:33;;;;;;;13.52;2.53;;;12.20;99.90;;;;;;5033696;28;20456;-48
2023/01/04 00:59:59;;;;;;;14.75;3.03;;;12.20;99.90;;;;;;5053102;28;20102;-49
2023/01/04 01:02:26;;;;;;;13.77;2.35;;;12.20;99.90;;;;;;5034907;28;20037;-47
2023/01/04 01:04:53;;;;;;;9.02;2.20;;;12.20;99.90;;;;;;5034025;28;20045;-53
2023/01/04 01:07:20;;;;;;;12.43;2.30;;;12.20;99.90;;;;;;5033704;28;20042;-46
2023/01/04 01:09:47;;;;;;;11.68;2.80;;;12.20;99.90;;;;;;5045186;28;20435;-55
2023/01/04 01:12:13;;;;;;;13.38;2.85;;;12.20;99.90;;;;;;5039434;28;20045;-53
2023/01/04 01:14:40;;;;;;;13.43;2.58;;;12.20;99.90;;;;;;5042014;28;20119;-54
2023/01/04 01:17:07;;;;;;;12.90;2.78;;;12.20;99.90;;;;;;5033694;28;20116;-54
2023/01/04 01:19:34;;;;;;;16.67;2.90;;;12.20;99.90;;;;;;5045263;28;20057;-52
2023/01/04 01:22:00;;;;;;;14.80;3.00;;;12.20;99.90;;;;;;5053790;28;20080;-52
2023/01/04 01:24:27;;;;;;;11.80;3.05;;;12.20;99.90;;;;;;5052318;28;20045;-53
2023/01/04 01:26:54;;;;;;;14.35;2.88;;;12.20;99.90;;;;;;5053757;28;20382;-54
2023/01/04 01:29:21;;;;;;;17.48;3.08;;;12.20;99.90;;;;;;5051530;28;20045;-50
2023/01/04 01:31:48;;;;;;;16.48;3.10;;;12.20;99.90;;;;;;5035620;28;20512;-50
2023/01/04 01:34:14;;;;;;;14.77;3.03;;;12.20;99.90;;;;;;5033698;28;20448;-56
2023/01/04 01:36:41;;;;;;;13.82;2.92;;;12.20;99.90;;;;;;5033153;28;20120;-52
2023/01/04 01:39:08;;;;;;;15.88;3.13;;;12.20;99.90;;;;;;5033581;28;20128;-53
2023/01/04 01:41:35;;;;;;;16.33;3.22;;;12.20;99.90;;;;;;5039564;28;20106;-55
2023/01/04 01:44:01;;;;;;;16.00;3.63;;;12.20;99.90;;;;;;5050602;28;20045;-50
2023/01/04 01:46:28;;;;;;;15.25;2.97;;;12.30;99.90;;;;;;5045971;28;20129;-52
2023/01/04 01:48:55;;;;;;;13.63;2.75;;;12.20;99.90;;;;;;5053247;28;20036;-51
2023/01/04 01:51:22;;;;;;;15.05;3.17;;;12.30;99.90;;;;;;5053245;28;20045;-52
2023/01/04 01:53:48;;;;;;;15.45;2.78;;;12.30;99.90;;;;;;5053561;28;20463;-54
2023/01/04 01:56:15;;;;;;;18.63;2.70;;;12.30;99.90;;;;;;5035582;28;20045;-53
2023/01/04 01:58:42;;;;;;;13.10;3.00;;;12.30;99.90;;;;;;5037257;28;20049;-55
2023/01/04 02:01:09;;;;;;;17.63;2.90;;;12.30;99.90;;;;;;5033512;28;20461;-53
2023/01/04 02:03:35;;;;;;;13.95;3.38;;;12.30;99.90;;;;;;5033600;28;20045;-52
2023/01/04 02:06:02;;;;;;;18.02;3.45;;;12.30;99.90;;;;;;5042174;28;20119;-52
2023/01/04 02:08:29;;;;;;;14.10;3.78;;;12.30;99.90;;;;;;5053222;28;20037;-54
2023/01/04 02:10:56;;;;;;;20.17;4.22;;;12.30;99.90;;;;;;5052998;28;20095;-53
2023/01/04 02:13:22;;;;;;;15.13;3.15;;;12.30;99.90;;;;;;5053155;28;20052;-53
2023/01/04 02:15:49;;;;;;;17.10;4.15;;;12.40;99.90;;;;;;5034274;28;20532;-52
2023/01/04 02:18:16;;;;;;;15.55;3.55;;;12.40;99.90;;;;;;5033048;28;20116;-55
2023/01/04 02:20:43;;;;;;;14.75;3.55;;;12.40;99.90;;;;;;5032900;28;20448;-52
2023/01/04 02:23:09;;;;;;;16.10;3.10;;;12.40;99.90;;;;;;5033133;28;20100;-54
2023/01/04 02:25:36;;;;;;;16.33;3.20;;;12.40;99.90;;;;;;5046421;28;20065;-49
2023/01/04 02:28:03;;;;;;;16.77;2.85;;;12.40;99.90;;;;;;5053075;28;20044;-51
2023/01/04 02:30:29;;;;;;;17.38;3.90;;;12.40;99.90;;;;;;5053192;28;20080;-51
2023/01/04 02:32:56;;;;;;;14.18;3.35;;;12.40;99.90;;;;;;5037628;28;20041;-50
2023/01/04 02:35:23;;;;;;;16.15;3.40;;;12.40;99.90;;;;;;5035889;28;20040;-55
2023/01/04 02:37:50;;;;;;;20.60;3.97;;;12.40;99.90;;;;;;5052840;28;20083;-53
2023/01/04 02:40:16;;;;;;;18.55;3.40;;;12.40;99.90;;;;;;5054164;28;20449;-55
2023/01/04 02:45:28;;;;;;;19.00;3.90;;;12.40;99.90;;;;;;5040139;28;20115;-50
2023/01/04 02:50:40;;;;;;;18.35;4.10;;;12.40;99.90;;;;;;5056843;28;20103;-53
2023/01/04 02:53:07;;;;;;;21.33;3.78;;;12.40;99.90;;;;;;5056426;28;20033;-50
2023/01/04 02:55:34;;;;;;;16.80;3.55;;;12.40;99.90;;;;;;5041499;28;20095;-56
2023/01/04 02:58:01;;;;;;;15.52;3.38;;;12.40;99.90;;;;;;5055221;28;20064;-55
2023/01/04 03:00:27;;;;;;;16.98;3.30;;;12.40;99.90;;;;;;5056212;28;20079;-51
2023/01/04 03:08:25;;;;;;;19.33;3.50;;;12.40;99.90;;;;;;5055721;28;20041;-48
2023/01/04 03:10:52;;;;;;;20.70;3.78;;;12.40;99.90;;;;;;5056210;28;20064;-53
2023/01/04 03:13:18;;;;;;;17.60;3.25;;;12.40;99.90;;;;;;5048640;28;20044;-51
2023/01/04 03:15:45;;;;;;;15.05;3.15;;;12.40;99.90;;;;;;5038318;28;20107;-52
2023/01/04 03:18:12;;;;;;;17.15;3.20;;;12.40;99.90;;;;;;5038721;28;20060;-53
2023/01/04 03:20:39;;;;;;;20.70;4.03;;;12.40;99.90;;;;;;5035902;28;20069;-48
2023/01/04 03:36:53;;;;;;;13.50;2.90;;;12.40;99.90;;;;;;5054839;28;20111;-54
2023/01/04 03:50:22;;;;;;;9.20;2.60;;;12.40;99.90;;;;;;5055448;28;20045;-51
2023/01/04 03:52:48;;;;;;;10.65;2.22;;;12.40;99.90;;;;;;5049635;28;20090;-51
2023/01/04 03:55:15;;;;;;;7.95;1.90;;;12.40;99.90;;;;;;5055442;28;20166;-47
2023/01/04 03:57:42;;;;;;;10.25;2.85;;;12.40;99.90;;;;;;5055650;28;20468;-49
2023/01/04 04:00:09;;;;;;;7.70;1.60;;;12.40;99.90;;;;;;5054458;28;20050;-52
2023/01/04 04:02:35;;;;;;;8.80;1.38;;;12.40;99.90;;;;;;5042291;28;20045;-54
2023/01/04 04:10:33;;;;;;;7.97;1.70;;;12.40;99.90;;;;;;5051733;28;20499;-49
2023/01/04 04:13:00;;;;;;;7.80;1.73;;;12.40;99.90;;;;;;5054582;28;20045;-48
2023/01/04 04:15:26;;;;;;;5.38;1.40;;;12.40;99.90;;;;;;5049641;28;20049;-47
2023/01/04 04:17:53;;;;;;;6.22;1.27;;;12.40;99.90;;;;;;5052757;28;20423;-50
2023/01/04 04:20:20;;;;;;;8.40;1.75;;;12.40;99.90;;;;;;5051162;28;20053;-50
2023/01/04 04:22:46;;;;;;;5.65;1.40;;;12.40;99.90;;;;;;5036181;28;20084;-50
2023/01/04 04:25:13;;;;;;;6.80;1.50;;;12.40;99.90;;;;;;5034794;28;20041;-52
2023/01/04 04:27:40;;;;;;;7.82;1.48;;;12.40;99.90;;;;;;5034471;28;20048;-48
2023/01/04 04:30:07;;;;;;;7.30;1.98;;;12.40;99.90;;;;;;5034815;28;20095;-53
2023/01/04 04:32:33;;;;;;;5.53;1.30;;;12.40;99.90;;;;;;5039203;28;20104;-52
2023/01/04 04:35:00;;;;;;;6.72;1.20;;;12.40;99.90;;;;;;5044348;28;20052;-56
2023/01/04 04:37:29;;;;;;;6.07;1.63;;;12.40;99.90;;;;;;5054500;28;20045;-51
2023/01/04 04:39:56;;;;;;;4.05;1.30;;;12.40;99.90;;;;;;5049026;28;20079;-52
2023/01/04 04:42:23;;;;;;;7.18;1.75;;;12.40;99.90;;;;;;5051054;28;20041;-52
2023/01/04 04:44:49;;;;;;;7.13;1.60;;;12.50;99.90;;;;;;5053331;28;20040;-54
2023/01/04 04:47:16;;;;;;;7.15;1.75;;;12.50;99.90;;;;;;5054244;28;20048;-50
2023/01/04 04:49:43;;;;;;;6.13;1.27;;;12.50;99.90;;;;;;5046448;28;20042;-48
2023/01/04 04:52:09;;;;;;;7.28;1.50;;;12.50;99.90;;;;;;5036189;28;20384;-55
2023/01/04 04:54:36;;;;;;;7.93;1.75;;;12.50;99.90;;;;;;5039015;28;20095;-54
2023/01/04 04:57:03;;;;;;;7.88;1.75;;;12.50;99.90;;;;;;5049133;28;20041;-54
2023/01/04 04:59:30;;;;;;;9.15;1.45;;;12.60;99.90;;;;;;5050911;28;20036;-52
2023/01/04 05:01:56;;;;;;;6.50;1.42;;;12.50;99.90;;;;;;5033679;28;20044;-53
2023/01/04 05:04:23;;;;;;;8.43;1.77;;;12.60;99.90;;;;;;5033306;28;20539;-53
2023/01/04 05:06:51;;;;;;;7.57;2.20;;;12.60;99.90;;;;;;5035706;28;20037;-53
2023/01/04 05:09:18;;;;;;;6.05;1.35;;;12.60;99.90;;;;;;5035349;28;20072;-54
2023/01/04 05:14:30;;;;;;;9.50;2.25;;;12.60;99.90;;;;;;5042510;28;20103;-51
2023/01/04 05:16:57;;;;;;;9.50;1.98;;;12.70;99.90;;;;;;5040235;28;20045;-54
2023/01/04 05:19:24;;;;;;;8.98;2.10;;;12.70;99.90;;;;;;5033993;28;20073;-53
2023/01/04 05:21:51;;;;;;;8.50;1.95;;;12.70;99.90;;;;;;5033630;28;20049;-47
2023/01/04 05:24:17;;;;;;;10.70;2.10;;;12.70;99.90;;;;;;5033358;28;20440;-51
2023/01/04 05:26:44;;;;;;;9.38;2.40;;;12.70;99.90;;;;;;5041843;28;20041;-50
2023/01/04 05:30:49;;;;;;;11.68;2.80;;;12.70;99.90;;;;;;5053554;28;20037;-48
2023/01/04 05:31:57;;;;;;;16.02;3.10;;;12.80;99.90;;;;;;5041599;28;20038;-50
2023/01/04 05:34:24;;;;;;;10.50;3.17;;;12.80;99.90;;;;;;5033360;28;20046;-50
2023/01/04 05:36:51;;;;;;;14.88;3.00;;;12.80;99.90;;;;;;5033409;28;20049;-52
2023/01/04 05:39:18;;;;;;;13.65;3.35;;;12.70;99.90;;;;;;5042202;28;20048;-54
2023/01/04 05:44:38;;;;;;;14.45;3.85;;;12.80;99.90;;;;;;5039226;28;20522;-47
2023/01/04 05:47:04;;;;;;;16.70;4.25;;;12.80;99.90;;;;;;5048528;28;20039;-50
2023/01/04 05:49:40;;;;;;;11.68;2.85;;;12.70;99.90;;;;;;5035129;28;20076;-52
2023/01/04 05:52:06;;;;;;;14.38;3.20;;;12.70;99.90;;;;;;5036444;28;20049;-54
2023/01/04 05:54:33;;;;;;;16.50;3.65;;;12.70;99.90;;;;;;5053469;28;20377;-54
2023/01/04 05:57:00;;;;;;;12.35;3.22;;;12.70;99.90;;;;;;5043894;28;20049;-49
2023/01/04 05:59:26;;;;;;;12.02;2.95;;;12.60;99.90;;;;;;5038853;28;20046;-50
2023/01/04 06:01:53;;;;;;;16.83;3.70;;;12.60;99.90;;;;;;5032763;28;20614;-50
2023/01/04 06:04:20;;;;;;;11.30;2.60;;;12.60;99.90;;;;;;5034077;28;20041;-53
2023/01/04 06:06:47;;;;;;;14.77;2.97;;;12.60;99.90;;;;;;5040881;28;20389;-50
2023/01/04 06:09:13;;;;;;;9.00;2.65;;;12.60;99.90;;;;;;5033874;28;20041;-51
2023/01/04 06:11:40;;;;;;;12.32;2.70;;;12.60;99.90;;;;;;5032976;28;20099;-51
2023/01/04 06:14:07;;;;;;;17.77;3.08;;;12.50;99.90;;;;;;5036748;28;20474;-54
2023/01/04 06:16:34;;;;;;;15.30;2.90;;;12.50;99.90;;;;;;5053452;28;20041;-50
2023/01/04 06:19:00;;;;;;;12.32;3.05;;;12.50;99.90;;;;;;5048239;28;20049;-49
2023/01/04 06:21:27;;;;;;;11.15;2.55;;;12.60;99.90;;;;;;5057030;28;20095;-52
2023/01/04 06:23:54;;;;;;;13.63;3.08;;;12.60;99.90;;;;;;5054152;28;20094;-51
2023/01/04 06:26:20;;;;;;;12.32;2.83;;;12.60;99.90;;;;;;5048976;28;20388;-55
2023/01/04 06:28:47;;;;;;;17.80;3.05;;;12.60;99.90;;;;;;5046677;28;20428;-53
2023/01/04 06:31:14;;;;;;;11.02;2.63;;;12.60;99.90;;;;;;5037049;28;20477;-54
2023/01/04 06:33:41;;;;;;;12.70;2.90;;;12.60;99.90;;;;;;5048333;28;20095;-51
2023/01/04 06:36:07;;;;;;;9.23;2.55;;;12.60;99.90;;;;;;5056568;28;20095;-50
2023/01/04 06:38:45;;;;;;;10.18;2.22;;;12.60;99.90;;;;;;5048332;28;20098;-50
2023/01/04 06:41:12;;;;;;;12.07;2.83;;;12.60;99.90;;;;;;5051512;28;20124;-51
2023/01/04 06:43:39;;;;;;;11.70;2.15;;;12.60;99.90;;;;;;5036200;28;20060;-53
2023/01/04 06:46:05;;;;;;;12.15;1.92;;;12.60;99.90;;;;;;5049516;28;20389;-51
2023/01/04 06:48:32;;;;;;;11.50;2.60;;;12.60;99.90;;;;;;5054150;28;20041;-54
2023/01/04 06:50:59;;;;;;;9.98;1.70;;;12.70;99.90;;;;;;5052884;28;20103;-50
2023/01/04 06:53:26;;;;;;;9.02;2.38;;;12.70;99.90;;;;;;5036174;28;20045;-53
2023/01/04 06:55:52;;;;;;;9.43;2.30;;;12.70;99.90;;;;;;5045650;28;20095;-51
2023/01/04 06:58:19;;;;;;;10.30;3.03;;;12.70;99.90;;;;;;5055328;28;20082;-49
2023/01/04 07:00:46;;;;;;;9.57;2.20;;;12.70;99.90;;;;;;5040250;28;20073;-54
2023/01/04 07:03:13;;;;;;;10.32;2.42;;;12.70;99.90;;;;;;5043499;28;20092;-48
2023/01/04 07:05:41;;;;;;;9.20;2.33;;;12.70;99.90;;;;;;5056407;28;20041;-52
2023/01/04 07:08:08;;;;;;;11.02;2.90;;;12.70;99.90;;;;;;5054182;28;20048;-48
2023/01/04 07:10:35;;;;;;;11.68;2.13;;;12.70;99.90;;;;;;5044109;28;20385;-53
2023/01/04 07:13:02;;;;;;;9.15;2.45;;;12.70;99.90;;;;;;5040293;28;20064;-50
2023/01/04 07:15:29;;;;;;;10.48;2.20;;;12.70;99.90;;;;;;5036358;28;20057;-46
2023/01/04 07:18:05;;;;;;;10.23;2.17;;;12.70;99.90;;;;;;5048472;28;20426;-50
2023/01/04 07:20:32;;;;;;;9.50;2.42;;;12.70;99.90;;;;;;5047693;28;20045;-52
2023/01/04 07:22:59;;;;;;;11.77;2.60;;;12.70;99.90;;;;;;5037646;28;20045;-52
2023/01/04 07:25:25;;;;;;;12.27;2.28;;;12.60;99.90;;;;;;5039600;28;20045;-50
2023/01/04 07:27:52;;;;;;;11.48;2.60;;;12.60;99.90;;;;;;5040179;28;20064;-51
2023/01/04 07:30:19;;;;;;;11.27;2.83;;;12.60;99.90;;;;;;5048349;28;20585;-52
2023/01/04 07:32:46;;;;;;;9.02;2.40;;;12.60;99.90;;;;;;5035473;28;20084;-54
2023/01/04 07:35:12;;;;;;;10.63;2.50;;;12.60;99.90;;;;;;5044228;28;20037;-52
2023/01/04 07:37:39;;;;;;;12.02;2.53;;;12.60;99.90;;;;;;5054862;28;20065;-50
2023/01/04 07:40:06;;;;;;;10.82;2.45;;;12.60;99.90;;;;;;5054679;28;20079;-51
2023/01/04 07:42:33;;;;;;;9.45;2.33;;;12.60;99.90;;;;;;5043146;28;20182;-51
2023/01/04 07:44:59;;;;;;;9.25;2.28;;;12.60;99.90;;;;;;5046968;28;20041;-52
2023/01/04 07:47:26;;;;;;;8.68;2.40;;;12.50;99.90;;;;;;5039596;28;20072;-52
2023/01/04 07:49:53;;;;;;;7.72;1.95;;;12.60;99.90;;;;;;5038578;28;20459;-49
2023/01/04 07:52:20;;;;;;;9.30;2.08;;;12.60;99.90;;;;;;5049355;28;20076;-52
2023/01/04 07:54:46;;;;;;;6.90;1.63;;;12.50;99.90;;;;;;5037607;28;20072;-56
2023/01/04 07:57:13;;;;;;;6.35;1.50;;;12.60;99.90;;;;;;5044636;28;20041;-53
2023/01/04 07:59:40;;;;;;;6.90;1.70;;;12.50;99.90;;;;;;5034936;28;20041;-50
2023/01/04 08:02:07;;;;;;;7.80;1.92;;;12.60;99.90;;;;;;5042828;28;20049;-53
2023/01/04 08:04:34;;;;;;;5.35;1.50;;;12.60;99.90;;;;;;5038449;28;20045;-55
2023/01/04 08:07:01;;;;;;;5.55;1.30;;;12.60;99.90;;;;;;5045713;28;20124;-53
2023/01/04 08:09:28;;;;;;;5.80;1.92;;;12.60;99.90;;;;;;5045658;28;20037;-49
2023/01/04 08:11:54;;;;;;;6.10;1.65;;;12.60;99.90;;;;;;5042549;28;20087;-54
2023/01/04 08:14:22;;;;;;;10.02;1.67;;;12.50;99.90;;;;;;5041644;28;20440;-52
2023/01/04 08:16:49;;;;;;;8.57;2.08;;;12.50;99.90;;;;;;5046810;28;20090;-51
2023/01/04 08:19:15;;;;;;;8.25;1.92;;;12.60;99.90;;;;;;5044241;28;20497;-54
2023/01/04 08:21:42;;;;;;;7.50;1.70;;;12.60;99.90;;;;;;5041114;28;20041;-52
2023/01/04 08:24:09;;;;;;;7.70;2.22;;;12.60;99.90;;;;;;5044149;28;20041;-55
2023/01/04 08:26:35;;;;;;;8.77;1.88;;;12.60;99.90;;;;;;5043897;28;20480;-52
2023/01/04 08:29:02;;;;;;;8.05;1.92;;;12.60;99.90;;;;;;5045165;28;20393;-52
2023/01/04 08:31:29;;;;;;;8.10;1.70;;;12.60;99.90;;;;;;5052392;28;20108;-55
2023/01/04 08:33:56;;;;;;;8.90;2.13;;;12.60;99.90;;;;;;5053459;28;20052;-53
2023/01/04 08:36:22;;;;;;;12.60;1.75;;;12.60;99.90;;;;;;5039218;28;20099;-52
2023/01/04 08:38:53;;;;;;;8.52;2.17;;;12.60;99.90;;;;;;5041718;28;20422;-51
2023/01/04 08:41:28;;;;;;;10.77;2.28;;;12.60;99.90;;;;;;5037364;28;20044;-53
2023/01/04 08:44:14;;;;;;;8.32;1.60;;;12.60;99.90;;;;;;5038614;28;20120;-52
2023/01/04 08:46:41;;;;;;;8.48;1.90;;;12.60;99.90;;;;;;5039251;28;20112;-52
2023/01/04 08:49:08;;;;;;;9.65;2.30;;;12.60;99.90;;;;;;5040262;28;20440;-55
2023/01/04 08:51:34;;;;;;;9.45;2.38;;;12.60;99.90;;;;;;5047482;28;20041;-49
2023/01/04 08:54:01;;;;;;;7.25;2.30;;;12.60;99.90;;;;;;5041540;28;20076;-53
2023/01/04 08:56:28;;;;;;;8.57;2.08;;;12.50;99.90;;;;;;5041455;28;20484;-52
2023/01/04 08:58:55;;;;;;;8.50;2.42;;;12.60;99.90;;;;;;5051824;28;20535;-52
2023/01/04 09:01:21;;;;;;;8.18;1.90;;;12.60;99.90;;;;;;5036232;28;20454;-52
2023/01/04 09:03:48;;;;;;;10.40;2.03;;;12.60;99.90;;;;;;5044225;28;20129;-54
2023/01/04 09:06:15;;;;;;;5.97;1.90;;;12.70;99.90;;;;;;5035905;28;20095;-57
2023/01/04 09:08:42;;;;;;;6.25;1.60;;;12.70;99.90;;;;;;5037969;28;20038;-52
2023/01/04 09:11:08;;;;;;;10.52;2.30;;;12.70;99.90;;;;;;5046954;28;20114;-53
2023/01/04 09:13:35;;;;;;;9.45;2.30;;;12.70;99.90;;;;;;5037886;28;20484;-54
2023/01/04 09:16:02;;;;;;;10.40;2.40;;;12.80;99.90;;;;;;5046260;28;20412;-49
2023/01/04 09:18:29;;;;;;;10.57;2.38;;;12.80;99.90;;;;;;5040962;28;20053;-55
2023/01/04 09:21:00;;;;;;;11.52;2.78;;;12.80;99.90;;;;;;5039801;28;20132;-54
2023/01/04 09:23:29;;;;;;;8.85;1.98;;;12.90;99.90;;;;;;5045369;28;20096;-53
2023/01/04 09:25:56;;;;;;;12.70;2.10;;;12.90;99.90;;;;;;5039880;28;20037;-49
2023/01/04 09:28:23;;;;;;;11.55;2.45;;;12.90;99.90;;;;;;5037811;28;20120;-50
2023/01/04 09:30:50;;;;;;;9.02;2.00;;;12.90;99.90;;;;;;5038451;28;20037;-49
2023/01/04 09:33:17;;;;;;;15.68;2.67;;;12.90;99.90;;;;;;5039792;28;20519;-50
2023/01/04 09:35:43;;;;;;;11.30;2.10;;;12.90;99.90;;;;;;5036934;28;20060;-49
2023/01/04 09:38:10;;;;;;;11.15;2.60;;;12.90;99.90;;;;;;5046653;28;20061;-55
2023/01/04 09:40:37;;;;;;;14.77;2.25;;;12.90;99.90;;;;;;5041556;28;20041;-48
2023/01/04 09:43:03;;;;;;;16.30;3.13;;;12.90;99.90;;;;;;5038125;28;20052;-50
2023/01/04 09:45:47;;;;;;;10.02;2.72;;;13.00;99.90;;;;;;5042062;28;20033;-47
2023/01/04 09:48:14;;;;;;;11.65;2.55;;;13.00;99.90;;;;;;5042483;28;20146;-55
2023/01/04 09:50:50;;;;;;;12.35;2.95;;;13.00;99.90;;;;;;5039342;28;20068;-53
2023/01/04 09:53:17;;;;;;;12.98;2.58;;;13.00;99.90;;;;;;5040194;28;20040;-53
2023/01/04 09:55:45;;;;;;;11.52;2.88;;;13.10;99.90;;;;;;5040819;28;20045;-52
2023/01/04 09:58:12;;;;;;;13.45;2.58;;;13.10;99.90;;;;;;5042623;28;20041;-54
2023/01/04 10:00:39;;;;;;;12.40;2.92;;;13.10;99.90;;;;;;5035618;28;20131;-52
2023/01/04 10:03:09;;;;;;;11.48;3.00;;;13.10;99.90;;;;;;5039910;28;20082;-52
2023/01/04 10:05:36;;;;;;;14.60;2.70;;;13.10;99.90;;;;;;5036191;28;20073;-53
2023/01/04 10:08:03;;;;;;;17.92;4.20;;;13.10;99.90;;;;;;5037255;28;20050;-51
2023/01/04 10:10:30;;;;;;;13.45;3.00;;;13.20;99.90;;;;;;5039495;28;20552;-47
2023/01/04 10:12:57;;;;;;;16.02;2.90;;;13.20;99.90;;;;;;5041198;28;20048;-48
2023/01/04 10:15:25;;;;;;;13.50;2.50;;;13.30;99.90;;;;;;5035973;28;20552;-47
2023/01/04 10:17:52;;;;;;;14.07;3.70;;;13.30;99.90;;;;;;5037832;28;20041;-49
2023/01/04 10:20:39;;;;;;;16.35;3.00;;;13.30;99.90;;;;;;5041634;28;20038;-50
2023/01/04 10:23:25;;;;;;;12.93;2.95;;;13.30;99.90;;;;;;5041359;28;20391;-48
2023/01/04 10:25:52;;;;;;;16.63;3.63;;;13.40;99.90;;;;;;5042582;28;20048;-46
2023/01/04 10:28:19;;;;;;;12.35;2.97;;;13.30;99.90;;;;;;5040722;28;20100;-48
2023/01/04 10:30:46;;;;;;;13.38;2.47;;;13.40;99.90;;;;;;5034992;28;20033;-49
2023/01/04 10:33:12;;;;;;;13.40;3.33;;;13.40;99.90;;;;;;5038622;28;20037;-47
2023/01/04 10:35:39;;;;;;;10.77;2.88;;;13.40;99.90;;;;;;5041655;28;20073;-46
2023/01/04 10:38:06;;;;;;;16.75;3.58;;;13.50;99.90;;;;;;5051212;28;20057;-46
2023/01/04 10:40:33;;;;;;;11.10;2.83;;;13.50;99.90;;;;;;5040141;28;20072;-46
2023/01/04 10:43:00;;;;;;;13.35;3.13;;;13.50;99.90;;;;;;5040434;28;20064;-56
2023/01/04 10:45:27;;;;;;;17.00;3.28;;;13.50;99.90;;;;;;5044227;28;20116;-51
2023/01/04 10:47:54;;;;;;;16.02;3.53;;;13.50;99.90;;;;;;5044550;28;20083;-53
2023/01/04 10:50:21;;;;;;;14.13;2.88;;;13.50;99.90;;;;;;5038509;28;20040;-55
2023/01/04 10:52:48;;;;;;;12.68;3.00;;;13.50;99.90;;;;;;5045523;28;20041;-49
2023/01/04 10:55:16;;;;;;;16.20;3.28;;;13.60;99.90;;;;;;5036283;28;20455;-51
2023/01/04 10:57:42;;;;;;;16.92;3.38;;;13.60;99.90;;;;;;5036934;28;20104;-53
2023/01/04 11:00:09;;;;;;;15.85;3.92;;;13.60;99.90;;;;;;5035021;28;20068;-54
2023/01/04 11:02:36;;;;;;;12.95;2.95;;;13.60;99.90;;;;;;5045344;28;20377;-55
2023/01/04 11:05:03;;;;;;;14.57;3.17;;;13.60;99.90;;;;;;5040239;28;20048;-51
2023/01/04 11:07:29;;;;;;;13.48;3.35;;;13.70;99.90;;;;;;5043649;28;20042;-49
2023/01/04 11:09:56;;;;;;;15.27;3.35;;;13.70;99.90;;;;;;5041478;28;20095;-48
2023/01/04 11:12:23;;;;;;;18.35;3.67;;;13.70;99.90;;;;;;5037446;28;20073;-52
2023/01/04 11:14:50;;;;;;;15.57;3.75;;;13.80;99.90;;;;;;5045223;28;20112;-54
2023/01/04 11:17:17;;;;;;;15.32;3.60;;;13.80;99.90;;;;;;5040828;28;20088;-54
2023/01/04 11:19:43;;;;;;;16.48;3.40;;;13.80;99.90;;;;;;5041800;28;20103;-52
2023/01/04 11:22:11;;;;;;;16.75;3.80;;;13.80;99.90;;;;;;5042464;28;20041;-52
2023/01/04 11:24:37;;;;;;;13.88;3.75;;;13.80;99.90;;;;;;5037684;28;20121;-52
2023/01/04 11:27:19;;;;;;;14.45;3.08;;;13.80;99.90;;;;;;5038136;28;20053;-49
2023/01/04 11:29:52;;;;;;;17.27;3.35;;;13.90;99.90;;;;;;5044025;28;20420;-53
2023/01/04 11:32:19;;;;;;;17.58;3.22;;;13.90;99.90;;;;;;5040718;28;20038;-53
2023/01/04 11:34:46;;;;;;;15.98;3.92;;;13.90;99.90;;;;;;5047137;28;20056;-51
2023/01/04 11:37:12;;;;;;;14.32;3.30;;;13.90;99.90;;;;;;5041287;28;20053;-49
2023/01/04 11:39:39;;;;;;;16.95;3.65;;;13.90;99.90;;;;;;5044258;28;20091;-49
2023/01/04 11:42:07;;;;;;;14.23;3.00;;;13.90;99.90;;;;;;5039186;28;20119;-50
2023/01/04 11:44:33;;;;;;;14.50;3.20;;;13.90;99.90;;;;;;5040571;28;20079;-48
2023/01/04 11:47:00;;;;;;;18.48;3.95;;;13.90;99.90;;;;;;5039163;28;20037;-55
2023/01/04 11:49:27;;;;;;;15.15;3.33;;;13.90;99.90;;;;;;5043839;28;20438;-53
2023/01/04 11:51:53;;;;;;;19.05;3.45;;;13.90;99.90;;;;;;5044799;28;20485;-52
2023/01/04 11:54:20;;;;;;;16.20;3.70;;;14.00;99.90;;;;;;5037770;28;20041;-49
2023/01/04 11:56:47;;;;;;;16.63;3.40;;;14.00;99.90;;;;;;5039867;28;20044;-50
2023/01/04 11:59:14;;;;;;;17.10;3.78;;;14.00;99.90;;;;;;5041371;28;20551;-52
2023/01/04 12:01:50;;;;;;;18.38;3.97;;;14.00;99.90;;;;;;5040956;28;20041;-55
2023/01/04 12:04:17;;;;;;;16.13;3.33;;;14.00;99.90;;;;;;5041491;28;20094;-48
2023/01/04 12:06:44;;;;;;;14.38;3.20;;;14.00;99.90;;;;;;5038421;28;20106;-48
2023/01/04 12:09:10;;;;;;;18.45;3.70;;;13.90;99.90;;;;;;5039891;28;20037;-54
2023/01/04 12:11:37;;;;;;;17.60;3.78;;;14.00;99.90;;;;;;5040809;28;20405;-48
2023/01/04 12:14:04;;;;;;;17.70;3.83;;;14.00;99.90;;;;;;5039101;28;20444;-52
2023/01/04 12:16:31;;;;;;;16.33;3.58;;;14.00;99.90;;;;;;5041471;28;20120;-57
2023/01/04 12:18:57;;;;;;;20.08;3.60;;;14.00;99.90;;;;;;5042025;28;20053;-53
2023/01/04 12:21:25;;;;;;;14.02;3.50;;;14.00;99.90;;;;;;5040249;28;20119;-52
2023/01/04 12:23:51;;;;;;;18.98;3.75;;;14.00;99.90;;;;;;5045125;28;20045;-51
2023/01/04 12:26:18;;;;;;;15.35;3.17;;;14.00;99.90;;;;;;5040705;28;20041;-50
2023/01/04 12:28:45;;;;;;;22.60;4.35;;;14.00;99.90;;;;;;5037680;28;20034;-53
2023/01/04 12:31:12;;;;;;;14.13;3.67;;;14.00;99.90;;;;;;5036770;28;20439;-52
2023/01/04 12:33:44;;;;;;;19.02;3.95;;;14.00;99.90;;;;;;5040117;28;20102;-56
2023/01/04 12:36:11;;;;;;;15.20;3.72;;;13.90;99.90;;;;;;5037155;28;20072;-50
2023/01/04 12:38:37;;;;;;;20.58;4.10;;;14.00;99.90;;;;;;5038642;28;20095;-49
2023/01/04 12:41:04;;;;;;;18.63;3.90;;;13.90;99.90;;;;;;5036476;28;20033;-49
2023/01/04 12:43:31;;;;;;;20.00;4.32;;;13.90;99.90;;;;;;5042056;28;20444;-52
2023/01/04 12:49:02;;;;;;;13.93;3.58;;;13.90;99.90;;;;;;5040866;28;20041;-50
2023/01/04 12:49:06;;;;;;;18.38;3.85;;;14.00;99.90;;;;;;5046704;28;20028;-57
2023/01/04 12:51:32;;;;;;;21.17;3.85;;;14.00;99.90;;;;;;5039891;28;20033;-52
2023/01/04 12:53:59;;;;;;;18.42;4.00;;;14.00;99.90;;;;;;5041187;28;20050;-50
2023/01/04 12:56:26;;;;;;;16.23;4.28;;;13.90;99.90;;;;;;5037223;28;20128;-53
2023/01/04 12:58:53;;;;;;;18.85;3.95;;;13.90;99.90;;;;;;5044184;28;20053;-50
2023/01/04 13:01:40;;;;;;;18.13;4.72;;;13.80;99.90;;;;;;5045459;28;20548;-49
2023/01/04 13:04:06;;;;;;;22.77;4.43;;;13.80;99.90;;;;;;5037388;28;20038;-55
2023/01/04 13:06:33;;;;;;;18.23;4.20;;;13.70;99.90;;;;;;5040948;28;20045;-48
2023/01/04 13:09:00;;;;;;;20.02;4.10;;;13.60;99.90;;;;;;5045171;28;20489;-52
2023/01/04 13:11:27;;;;;;;14.25;4.22;;;13.60;99.90;;;;;;5042541;28;20095;-54
2023/01/04 13:13:55;;;;;;;15.48;4.15;;;13.50;99.90;;;;;;5042479;28;20045;-50
2023/01/04 13:16:22;;;;;;;18.10;5.18;;;13.60;99.90;;;;;;5040794;28;20048;-47
2023/01/04 13:18:49;;;;;;;18.58;4.30;;;13.60;99.90;;;;;;5045138;28;20481;-52
2023/01/04 13:21:16;;;;;;;22.98;4.32;;;13.60;99.90;;;;;;5038579;28;20033;-53
2023/01/04 13:23:43;;;;;;;19.38;4.95;;;13.60;99.90;;;;;;5042551;28;20103;-51
2023/01/04 13:26:10;;;;;;;20.75;4.72;;;13.60;99.90;;;;;;5039010;28;20119;-54
2023/01/04 13:28:36;;;;;;;20.23;4.95;;;13.50;99.90;;;;;;5042933;28;20041;-52